createdAt,value
2018-11-26T00:01:46.738Z,3.80
2018-11-26T00:04:15.142Z,3.80
2018-11-26T00:06:43.517Z,3.80
2018-11-26T00:09:11.914Z,3.80
2018-11-26T00:11:40.382Z,3.90
2018-11-26T00:16:36.890Z,3.80
2018-11-26T00:19:05.853Z,3.90
2018-11-26T00:21:34.293Z,3.80
2018-11-26T00:24:02.692Z,3.80
2018-11-26T00:26:31.124Z,3.80
2018-11-26T00:28:59.565Z,3.80
2018-11-26T00:31:27.924Z,3.80
2018-11-26T00:33:56.317Z,3.90
2018-11-26T00:36:24.701Z,3.90
2018-11-26T00:38:53.106Z,3.90
2018-11-26T00:41:21.482Z,3.90
2018-11-26T00:43:49.885Z,4.00
2018-11-26T00:46:18.265Z,4.00
2018-11-26T00:48:46.645Z,4.00
2018-11-26T00:51:15.036Z,4.00
2018-11-26T00:53:43.449Z,3.90
2018-11-26T00:56:11.821Z,3.90
2018-11-26T00:58:40.201Z,3.90
2018-11-26T01:01:08.589Z,4.00
2018-11-26T01:03:36.997Z,4.00
2018-11-26T01:06:05.668Z,3.90
2018-11-26T01:08:34.052Z,3.90
2018-11-26T01:11:02.412Z,3.90
2018-11-26T01:13:30.809Z,3.90
2018-11-26T01:15:59.172Z,3.90
2018-11-26T01:18:27.541Z,3.90
2018-11-26T01:20:55.932Z,3.90
2018-11-26T01:23:24.529Z,3.80
2018-11-26T01:25:53.301Z,3.80
2018-11-26T01:28:21.680Z,3.80
2018-11-26T01:30:50.090Z,3.80
2018-11-26T01:33:18.477Z,3.80
2018-11-26T01:35:46.864Z,3.80
2018-11-26T01:38:15.257Z,3.80
2018-11-26T01:40:48.612Z,3.70
2018-11-26T01:43:17.128Z,3.80
2018-11-26T01:45:45.520Z,3.70
2018-11-26T01:48:13.903Z,3.70
2018-11-26T01:50:42.321Z,3.70
2018-11-26T01:53:10.689Z,3.70
2018-11-26T01:55:39.078Z,3.70
2018-11-26T01:58:07.485Z,3.60
2018-11-26T02:00:35.916Z,3.60
2018-11-26T02:03:04.288Z,3.60
2018-11-26T02:05:32.737Z,3.60
2018-11-26T02:08:01.105Z,3.50
2018-11-26T02:10:29.498Z,3.50
2018-11-26T02:12:57.889Z,3.50
2018-11-26T02:15:34.061Z,3.50
2018-11-26T02:18:02.430Z,3.50
2018-11-26T02:20:30.825Z,3.50
2018-11-26T02:22:59.202Z,3.50
2018-11-26T02:25:27.612Z,3.50
2018-11-26T02:27:56.005Z,3.50
2018-11-26T02:30:24.426Z,3.50
2018-11-26T02:32:52.832Z,3.40
2018-11-26T02:35:21.231Z,3.40
2018-11-26T02:37:51.803Z,3.40
2018-11-26T02:40:36.926Z,3.40
2018-11-26T02:43:05.364Z,3.40
2018-11-26T02:45:33.748Z,3.30
2018-11-26T02:48:02.132Z,3.30
2018-11-26T02:50:30.522Z,3.30
2018-11-26T02:52:58.905Z,3.30
2018-11-26T02:55:27.312Z,3.30
2018-11-26T02:57:55.678Z,3.30
2018-11-26T03:00:24.082Z,3.30
2018-11-26T03:05:25.520Z,3.30
2018-11-26T03:07:54.222Z,3.30
2018-11-26T03:10:23.111Z,3.30
2018-11-26T03:12:51.517Z,3.30
2018-11-26T03:15:19.910Z,3.20
2018-11-26T03:17:48.319Z,3.20
2018-11-26T03:20:16.716Z,3.20
2018-11-26T03:22:45.082Z,3.20
2018-11-26T03:25:13.489Z,3.20
2018-11-26T03:27:41.909Z,3.20
2018-11-26T03:30:24.912Z,3.20
2018-11-26T03:32:53.284Z,3.20
2018-11-26T03:35:21.659Z,3.10
2018-11-26T03:37:50.031Z,3.20
2018-11-26T03:40:18.432Z,3.20
2018-11-26T03:42:46.812Z,3.20
2018-11-26T03:45:17.076Z,3.20
2018-11-26T03:47:45.521Z,3.10
2018-11-26T03:50:14.545Z,3.10
2018-11-26T03:52:43.930Z,3.10
2018-11-26T03:55:12.795Z,3.10
2018-11-26T03:57:41.231Z,3.10
2018-11-26T04:00:13.762Z,3.20
2018-11-26T04:02:42.159Z,3.20
2018-11-26T04:05:11.123Z,3.20
2018-11-26T04:10:11.669Z,3.30
2018-11-26T04:12:40.149Z,3.20
2018-11-26T04:15:11.294Z,3.20
2018-11-26T04:17:39.692Z,3.10
2018-11-26T04:20:08.845Z,3.20
2018-11-26T04:22:37.333Z,3.20
2018-11-26T04:25:07.151Z,3.20
2018-11-26T04:27:35.724Z,3.20
2018-11-26T04:30:04.519Z,3.10
2018-11-26T04:32:32.921Z,3.20
2018-11-26T04:35:01.298Z,3.10
2018-11-26T04:37:29.689Z,3.10
2018-11-26T04:39:58.057Z,3.10
2018-11-26T04:42:26.441Z,3.20
2018-11-26T04:44:54.801Z,3.20
2018-11-26T04:47:23.192Z,3.20
2018-11-26T04:49:51.557Z,3.10
2018-11-26T04:52:20.164Z,3.20
2018-11-26T04:54:48.592Z,3.10
2018-11-26T04:57:16.985Z,3.20
2018-11-26T04:59:45.456Z,3.20
2018-11-26T05:02:13.845Z,3.20
2018-11-26T05:04:42.196Z,3.20
2018-11-26T05:07:10.586Z,3.20
2018-11-26T05:09:38.948Z,3.20
2018-11-26T05:12:07.956Z,3.10
2018-11-26T05:14:36.319Z,3.10
2018-11-26T05:17:05.325Z,3.10
2018-11-26T05:19:33.706Z,3.10
2018-11-26T05:22:02.109Z,3.20
2018-11-26T05:24:30.477Z,3.20
2018-11-26T05:26:58.876Z,3.20
2018-11-26T05:29:27.267Z,3.20
2018-11-26T05:31:55.638Z,3.20
2018-11-26T05:34:24.021Z,3.20
2018-11-26T05:36:52.415Z,3.20
2018-11-26T05:39:20.805Z,3.20
2018-11-26T05:41:49.179Z,3.30
2018-11-26T05:44:17.683Z,3.30
2018-11-26T05:46:46.067Z,3.30
2018-11-26T05:49:14.462Z,3.20
2018-11-26T05:51:42.845Z,3.20
2018-11-26T05:54:11.318Z,3.20
2018-11-26T05:56:39.724Z,3.20
2018-11-26T05:59:08.109Z,3.20
2018-11-26T06:01:36.483Z,3.20
2018-11-26T06:04:05.129Z,3.20
2018-11-26T06:06:33.493Z,3.20
2018-11-26T06:11:29.970Z,3.10
2018-11-26T06:13:58.368Z,3.20
2018-11-26T06:16:26.743Z,3.20
2018-11-26T06:18:55.129Z,3.10
2018-11-26T06:21:23.498Z,3.00
2018-11-26T06:26:20.021Z,3.10
2018-11-26T06:28:48.432Z,3.20
2018-11-26T06:31:16.801Z,3.20
2018-11-26T06:33:45.186Z,3.20
2018-11-26T06:36:13.545Z,3.20
2018-11-26T06:38:41.933Z,3.20
2018-11-26T06:41:10.296Z,3.20
2018-11-26T06:43:38.701Z,3.20
2018-11-26T06:46:08.037Z,3.10
2018-11-26T06:48:37.190Z,3.10
2018-11-26T06:51:06.210Z,3.00
2018-11-26T06:53:34.600Z,3.00
2018-11-26T06:56:02.988Z,3.10
2018-11-26T06:58:31.370Z,3.10
2018-11-26T07:00:59.745Z,3.20
2018-11-26T07:03:28.125Z,3.20
2018-11-26T07:05:56.508Z,3.20
2018-11-26T07:08:24.910Z,3.20
2018-11-26T07:10:53.268Z,3.10
2018-11-26T07:13:21.657Z,3.10
2018-11-26T07:15:50.069Z,3.10
2018-11-26T07:18:18.436Z,3.20
2018-11-26T07:20:46.809Z,3.20
2018-11-26T07:23:15.180Z,3.20
2018-11-26T07:25:43.557Z,3.10
2018-11-26T07:30:40.059Z,3.10
2018-11-26T07:33:08.432Z,3.10
2018-11-26T07:35:36.818Z,3.10
2018-11-26T07:38:05.465Z,3.10
2018-11-26T07:40:33.862Z,3.10
2018-11-26T07:43:07.144Z,3.10
2018-11-26T07:45:35.864Z,3.10
2018-11-26T07:48:04.354Z,3.00
2018-11-26T07:50:32.737Z,2.90
2018-11-26T07:53:01.216Z,2.90
2018-11-26T07:55:29.676Z,2.90
2018-11-26T07:57:58.050Z,3.00
2018-11-26T08:00:26.446Z,3.00
2018-11-26T08:02:55.561Z,3.00
2018-11-26T08:05:24.302Z,3.00
2018-11-26T08:07:52.695Z,3.00
2018-11-26T08:10:22.181Z,2.90
2018-11-26T08:12:51.597Z,3.00
2018-11-26T08:15:22.446Z,3.00
2018-11-26T08:17:49.783Z,3.10
2018-11-26T08:20:18.346Z,3.20
2018-11-26T08:22:46.748Z,3.20
2018-11-26T08:25:17.392Z,3.20
2018-11-26T08:27:46.676Z,3.20
2018-11-26T08:30:19.113Z,3.20
2018-11-26T08:35:16.797Z,3.30
2018-11-26T08:40:27.661Z,3.30
2018-11-26T08:42:58.383Z,3.30
2018-11-26T08:45:34.292Z,3.40
2018-11-26T08:48:06.228Z,3.30
2018-11-26T08:50:34.661Z,3.30
2018-11-26T08:53:03.018Z,3.20
2018-11-26T08:55:31.480Z,3.20
2018-11-26T08:57:59.860Z,3.30
2018-11-26T09:00:28.264Z,3.30
2018-11-26T09:03:01.929Z,3.30
2018-11-26T09:05:40.689Z,3.30
2018-11-26T09:08:09.044Z,3.30
2018-11-26T09:10:37.441Z,3.40
2018-11-26T09:13:05.863Z,3.40
2018-11-26T09:15:34.248Z,3.40
2018-11-26T09:18:02.697Z,3.40
2018-11-26T09:20:31.102Z,3.40
2018-11-26T09:22:59.463Z,3.40
2018-11-26T09:25:27.825Z,3.50
2018-11-26T09:27:56.232Z,3.40
2018-11-26T09:30:24.603Z,3.50
2018-11-26T09:32:53.004Z,3.50
2018-11-26T09:35:21.413Z,3.50
2018-11-26T09:37:49.805Z,3.50
2018-11-26T09:40:18.260Z,3.50
2018-11-26T09:42:46.649Z,3.50
2018-11-26T09:45:17.284Z,3.50
2018-11-26T09:50:18.509Z,3.60
2018-11-26T09:52:46.898Z,3.50
2018-11-26T09:55:16.324Z,3.50
2018-11-26T09:57:44.750Z,3.40
2018-11-26T10:00:15.266Z,3.40
2018-11-26T10:02:44.917Z,3.30
2018-11-26T10:05:15.649Z,3.30
2018-11-26T10:07:44.054Z,3.30
2018-11-26T10:10:13.089Z,3.40
2018-11-26T10:12:42.198Z,3.30
2018-11-26T10:15:15.749Z,3.30
2018-11-26T10:17:44.153Z,3.20
2018-11-26T10:20:12.779Z,3.30
2018-11-26T10:22:41.569Z,3.40
2018-11-26T10:25:12.272Z,3.50
2018-11-26T10:27:41.050Z,3.50
2018-11-26T10:30:14.355Z,3.50
2018-11-26T10:32:43.178Z,3.40
2018-11-26T10:35:14.361Z,3.40
2018-11-26T10:37:42.796Z,3.40
2018-11-26T10:40:15.213Z,3.30
2018-11-26T10:42:43.590Z,3.30
2018-11-26T10:45:13.224Z,3.30
2018-11-26T10:47:41.701Z,3.30
2018-11-26T10:50:14.334Z,3.40
2018-11-26T10:52:45.264Z,3.40
2018-11-26T10:55:15.138Z,3.50
2018-11-26T10:57:43.537Z,3.50
2018-11-26T11:00:18.626Z,3.50
2018-11-26T11:02:47.008Z,3.40
2018-11-26T11:05:15.426Z,3.30
2018-11-26T11:07:43.874Z,3.30
2018-11-26T11:10:14.702Z,3.30
2018-11-26T11:12:43.135Z,3.40
2018-11-26T11:15:12.417Z,3.30
2018-11-26T11:17:40.813Z,3.30
2018-11-26T11:20:14.708Z,3.30
2018-11-26T11:22:43.118Z,3.40
2018-11-26T11:25:13.659Z,3.40
2018-11-26T11:27:45.202Z,3.40
2018-11-26T11:30:17.437Z,3.30
2018-11-26T11:32:45.881Z,3.30
2018-11-26T11:35:14.958Z,3.40
2018-11-26T11:37:44.202Z,3.40
2018-11-26T11:40:13.995Z,3.50
2018-11-26T11:42:42.438Z,3.50
2018-11-26T11:45:11.925Z,3.50
2018-11-26T11:47:40.384Z,3.50
2018-11-26T11:50:10.175Z,3.40
2018-11-26T11:52:38.622Z,3.50
2018-11-26T11:55:08.742Z,3.50
2018-11-26T11:57:37.158Z,3.40
2018-11-26T12:00:12.906Z,3.50
2018-11-26T12:02:42.427Z,3.40
2018-11-26T12:05:12.341Z,3.30
2018-11-26T12:07:40.727Z,3.30
2018-11-26T12:10:10.470Z,3.30
2018-11-26T12:12:38.922Z,3.40
2018-11-26T12:15:11.558Z,3.40
2018-11-26T12:20:11.618Z,3.30
2018-11-26T12:22:40.398Z,3.20
2018-11-26T12:25:10.394Z,3.20
2018-11-26T12:27:38.789Z,3.30
2018-11-26T12:30:14.754Z,3.30
2018-11-26T12:35:11.318Z,3.10
2018-11-26T12:37:39.728Z,3.10
2018-11-26T12:40:09.809Z,3.20
2018-11-26T12:42:38.271Z,3.10
2018-11-26T12:45:17.269Z,3.10
2018-11-26T12:47:45.650Z,3.00
2018-11-26T12:50:14.091Z,3.00
2018-11-26T12:52:42.501Z,3.00
2018-11-26T12:55:13.294Z,2.90
2018-11-26T12:57:42.660Z,2.90
2018-11-26T13:00:14.198Z,2.80
2018-11-26T13:02:42.910Z,2.90
2018-11-26T13:05:12.726Z,2.90
2018-11-26T13:10:10.956Z,2.90
2018-11-26T13:12:39.377Z,2.90
2018-11-26T13:15:14.429Z,2.90
2018-11-26T13:17:42.866Z,2.90
2018-11-26T13:20:13.346Z,2.90
2018-11-26T13:22:41.846Z,2.90
2018-11-26T13:25:11.346Z,2.80
2018-11-26T13:27:43.076Z,2.80
2018-11-26T13:30:14.682Z,2.80
2018-11-26T13:34:13.526Z,2.80
2018-11-26T13:36:41.914Z,2.70
2018-11-26T13:39:10.320Z,2.70
2018-11-26T13:41:38.679Z,2.70
2018-11-26T13:44:07.170Z,2.60
2018-11-26T13:46:35.542Z,2.70
2018-11-26T13:49:03.986Z,2.70
2018-11-26T13:51:32.362Z,2.60
2018-11-26T13:54:00.768Z,2.60
2018-11-26T13:56:29.154Z,2.70
2018-11-26T13:58:57.566Z,2.60
2018-11-26T14:01:25.984Z,2.60
2018-11-26T14:03:54.360Z,2.60
2018-11-26T14:06:22.750Z,2.60
2018-11-26T14:08:51.332Z,2.60
2018-11-26T14:11:19.703Z,2.60
2018-11-26T14:13:48.094Z,2.60
2018-11-26T14:16:16.508Z,2.60
2018-11-26T14:18:44.891Z,2.60
2018-11-26T14:21:13.258Z,2.60
2018-11-26T14:23:41.673Z,2.50
2018-11-26T14:26:10.038Z,2.50
2018-11-26T14:28:38.445Z,2.40
2018-11-26T14:31:06.862Z,2.40
2018-11-26T14:33:35.242Z,2.40
2018-11-26T14:36:03.654Z,2.40
2018-11-26T14:38:32.041Z,2.30
2018-11-26T14:41:00.429Z,2.20
2018-11-26T14:43:28.805Z,2.10
2018-11-26T14:45:57.211Z,2.10
2018-11-26T14:48:25.578Z,2.20
2018-11-26T14:50:54.226Z,2.20
2018-11-26T14:53:22.704Z,2.20
2018-11-26T14:55:51.131Z,2.20
2018-11-26T14:58:19.507Z,2.20
2018-11-26T15:00:47.902Z,2.30
2018-11-26T15:03:16.308Z,2.20
2018-11-26T15:08:12.813Z,2.20
2018-11-26T15:10:41.228Z,2.20
2018-11-26T15:13:09.768Z,2.20
2018-11-26T15:15:39.722Z,2.10
2018-11-26T15:18:08.229Z,2.00
2018-11-26T15:20:36.614Z,2.00
2018-11-26T15:23:05.396Z,2.00
2018-11-26T15:25:34.285Z,2.00
2018-11-26T15:28:05.459Z,2.00
2018-11-26T15:30:33.847Z,2.10
2018-11-26T15:33:02.257Z,2.20
2018-11-26T15:35:30.658Z,2.20
2018-11-26T15:37:59.026Z,2.30
2018-11-26T15:42:56.281Z,2.30
2018-11-26T15:45:25.418Z,2.30
2018-11-26T15:47:54.890Z,2.30
2018-11-26T15:50:23.294Z,2.40
2018-11-26T15:52:51.682Z,2.40
2018-11-26T15:57:49.154Z,2.40
2018-11-26T16:00:20.374Z,2.40
2018-11-26T16:02:48.837Z,2.30
2018-11-26T16:05:27.327Z,2.30
2018-11-26T16:07:57.254Z,2.30
2018-11-26T16:10:25.683Z,2.30
2018-11-26T16:12:55.474Z,2.30
2018-11-26T16:15:25.417Z,2.30
2018-11-26T16:17:54.890Z,2.30
2018-11-26T16:20:24.617Z,2.30
2018-11-26T16:22:52.992Z,2.30
2018-11-26T16:25:22.742Z,2.30
2018-11-26T16:27:51.152Z,2.30
2018-11-26T16:30:19.926Z,2.30
2018-11-26T16:32:51.019Z,2.30
2018-11-26T16:35:22.722Z,2.30
2018-11-26T16:37:51.100Z,2.30
2018-11-26T16:40:19.610Z,2.30
2018-11-26T16:42:47.994Z,2.40
2018-11-26T16:45:19.813Z,2.30
2018-11-26T16:50:18.058Z,2.40
2018-11-26T16:52:46.429Z,2.40
2018-11-26T16:57:43.661Z,2.30
2018-11-26T17:00:22.183Z,2.30
2018-11-26T17:02:51.956Z,2.30
2018-11-26T17:05:26.237Z,2.30
2018-11-26T17:07:54.632Z,2.30
2018-11-26T17:10:23.081Z,2.30
2018-11-26T17:12:51.585Z,2.30
2018-11-26T17:15:19.990Z,2.20
2018-11-26T17:17:48.382Z,2.20
2018-11-26T17:20:17.553Z,2.20
2018-11-26T17:22:46.100Z,2.30
2018-11-26T17:25:15.846Z,2.20
2018-11-26T17:27:44.794Z,2.20
2018-11-26T17:30:16.331Z,2.20
2018-11-26T17:32:45.210Z,2.20
2018-11-26T17:35:14.725Z,2.20
2018-11-26T17:37:43.230Z,2.20
2018-11-26T17:40:16.647Z,2.20
2018-11-26T17:45:14.087Z,2.20
2018-11-26T17:50:15.247Z,2.20
2018-11-26T17:52:43.623Z,2.20
2018-11-26T17:55:12.047Z,2.20
2018-11-26T17:57:40.587Z,2.30
2018-11-26T18:00:11.786Z,2.20
2018-11-26T18:02:40.413Z,2.20
2018-11-26T18:05:13.342Z,2.20
2018-11-26T18:07:41.746Z,2.20
2018-11-26T18:12:39.337Z,2.20
2018-11-26T18:15:12.145Z,2.10
2018-11-26T18:17:40.534Z,2.10
2018-11-26T18:20:11.302Z,2.20
2018-11-26T18:22:39.682Z,2.20
2018-11-26T18:27:36.991Z,2.10
2018-11-26T18:30:11.418Z,2.10
2018-11-26T18:32:39.866Z,2.10
2018-11-26T18:35:08.318Z,2.10
2018-11-26T18:37:36.686Z,2.10
2018-11-26T18:40:07.543Z,2.00
2018-11-26T18:42:35.914Z,2.00
2018-11-26T18:45:05.348Z,2.10
2018-11-26T18:50:01.826Z,2.10
2018-11-26T18:52:30.246Z,2.10
2018-11-26T18:54:58.644Z,2.10
2018-11-26T18:57:27.062Z,2.10
2018-11-26T18:59:55.443Z,2.10
2018-11-26T19:02:23.838Z,2.10
2018-11-26T19:04:52.267Z,2.10
2018-11-26T19:07:20.690Z,2.20
2018-11-26T19:09:49.082Z,2.10
2018-11-26T19:14:45.672Z,2.20
2018-11-26T19:19:42.275Z,2.10
2018-11-26T19:22:10.578Z,2.20
2018-11-26T19:24:39.964Z,2.10
2018-11-26T19:27:08.370Z,2.10
2018-11-26T19:29:36.753Z,2.10
2018-11-26T19:32:05.675Z,2.20
2018-11-26T19:34:34.090Z,2.20
2018-11-26T19:37:02.501Z,2.20
2018-11-26T19:39:30.869Z,2.20
2018-11-26T19:41:59.266Z,2.20
2018-11-26T19:44:27.673Z,2.20
2018-11-26T19:49:24.238Z,2.20
2018-11-26T19:51:52.698Z,2.10
2018-11-26T19:54:21.114Z,2.10
2018-11-26T19:56:49.525Z,2.10
2018-11-26T19:59:17.916Z,2.10
2018-11-26T20:04:26.375Z,2.10
2018-11-26T20:09:22.923Z,2.10
2018-11-26T20:11:51.322Z,2.10
2018-11-26T20:14:25.722Z,2.10
2018-11-26T20:16:48.139Z,2.10
2018-11-26T20:19:16.559Z,2.10
2018-11-26T20:21:44.960Z,2.10
2018-11-26T20:24:13.386Z,2.10
2018-11-26T20:26:41.801Z,2.10
2018-11-26T20:29:10.186Z,2.10
2018-11-26T20:31:38.582Z,2.10
2018-11-26T20:34:07.371Z,2.10
2018-11-26T20:36:35.791Z,2.10
2018-11-26T20:41:34.250Z,2.10
2018-11-26T20:44:02.610Z,2.00
2018-11-26T20:46:31.106Z,2.00
2018-11-26T20:48:59.489Z,2.00
2018-11-26T20:51:27.899Z,2.00
2018-11-26T20:53:56.266Z,2.00
2018-11-26T20:56:24.714Z,2.00
2018-11-26T20:58:53.094Z,2.00
2018-11-26T21:01:21.493Z,2.00
2018-11-26T21:03:49.882Z,2.00
2018-11-26T21:06:18.302Z,2.00
2018-11-26T21:08:46.720Z,2.00
2018-11-26T21:11:15.093Z,2.00
2018-11-26T21:13:43.638Z,2.00
2018-11-26T21:16:12.758Z,2.00
2018-11-26T21:18:41.420Z,2.00
2018-11-26T21:23:38.117Z,2.00
2018-11-26T21:26:07.997Z,2.00
2018-11-26T21:28:37.230Z,2.00
2018-11-26T21:33:34.300Z,2.00
2018-11-26T21:36:02.741Z,2.00
2018-11-26T21:38:41.629Z,2.00
2018-11-26T21:41:11.859Z,2.00
2018-11-26T21:43:40.830Z,2.00
2018-11-26T21:46:09.218Z,2.00
2018-11-26T21:48:37.626Z,2.00
2018-11-26T21:51:06.215Z,2.00
2018-11-26T21:53:34.614Z,2.00
2018-11-26T21:56:03.006Z,2.00
2018-11-26T21:58:31.418Z,2.00
2018-11-26T22:01:01.078Z,1.90
2018-11-26T22:03:30.665Z,2.00
2018-11-26T22:05:57.930Z,2.00
2018-11-26T22:08:26.355Z,2.00
2018-11-26T22:13:22.886Z,1.90
2018-11-26T22:15:51.306Z,1.90
2018-11-26T22:18:19.733Z,1.90
2018-11-26T22:20:48.114Z,1.90
2018-11-26T22:23:16.510Z,1.90
2018-11-26T22:25:44.930Z,1.90
2018-11-26T22:28:13.544Z,1.90
2018-11-26T22:30:41.954Z,1.90
2018-11-26T22:35:38.477Z,1.90
2018-11-26T22:38:07.242Z,1.90
2018-11-26T22:40:35.642Z,1.90
2018-11-26T22:43:04.069Z,1.90
2018-11-26T22:45:33.447Z,1.90
2018-11-26T22:48:08.330Z,2.00
2018-11-26T22:50:38.974Z,2.00
2018-11-26T22:53:08.336Z,2.00
2018-11-26T22:55:36.811Z,2.00
2018-11-26T22:58:06.715Z,2.00
2018-11-26T23:00:41.358Z,2.00
2018-11-26T23:03:10.993Z,2.00
2018-11-26T23:05:39.462Z,2.00
2018-11-26T23:08:07.894Z,2.00
2018-11-26T23:10:36.270Z,2.00
2018-11-26T23:15:32.934Z,1.90
2018-11-26T23:18:01.313Z,1.90
2018-11-26T23:20:29.763Z,1.90
2018-11-26T23:22:58.156Z,2.00
2018-11-26T23:25:26.556Z,2.00
2018-11-26T23:27:54.931Z,2.00
2018-11-26T23:30:24.401Z,2.00
2018-11-26T23:32:57.862Z,2.00
2018-11-26T23:35:26.328Z,2.00
2018-11-26T23:37:54.714Z,2.00
2018-11-26T23:40:23.203Z,2.00
2018-11-26T23:42:51.618Z,1.90
2018-11-26T23:45:24.161Z,1.90
2018-11-26T23:47:52.608Z,2.00
2018-11-26T23:50:21.030Z,1.90
2018-11-26T23:55:19.571Z,1.90
2018-11-26T23:57:47.995Z,1.90
